Hovedside
METAR-TAF:

METAR-TAF

Lufthavner :

Newcastle, England

breddegrad: 55-02N, lengdegrad: 001-42W, høyde over havet: 81 m

Gjeldene værobservasjon

Denne rapporten ble laget for 40 minutter siden, klokken 13:50 UTC
Vind 9 kt fra Vest
Temperatur 20°C
Luftfuktighet 60%
Trykk 1018 hPa
Sikt 10 km eller mer
Få skyer i en høyde av 4000 ft

METAR: EGNT 181350Z 26009KT 9999 FEW040 20/12 Q1018

Tid: 15:30 (14:30 UTC)

Varsel

Denne rapporten ble laget for 3 timer og 34 minutter siden, klokken 10:56 UTC
Varsel gyldig fra 18. klokken 12 UTC til 19. klokken 12 UTC
Vind 5 kt fra Vest-sørvest
Sikt 10 km eller mer
Få skyer i en høyde av 4500 ft

TAF: EGNT 181056Z 1812/1912 24005KT 9999 FEW045

Værobservasjoner og værvarsel for over 4000 flyplasser (METAR- og TAF-rapporter).

Tilgjengelige stasjoner er representert av de røde og gule prikkene på kartet.

Hold musepekeren over prikken for å se navnet på stasjonen.

Klikk så for å se værobservasjoner og -varsler.

For å forandre kartet kan du klikke på den grønne knappen med svart kryss for å zoome inn, på den grønne knappen med strek for å zoome ut, eller på de grønne pilene for å se tilstøtende kart.


METAR-TAF: